Terminal Aerodrome Forecast
Issued by NWS

Home | Current Version | Previous Version | Text Only | Print | Product List | Glossary On
Versions: 1 2 3 4 5 6 7 8 9 10 11 12 13 14 15 16 17 18 19 20 21 22 23 24 25 26 27
000
FTUS41 KOKX 060523
TAFTEB
TAF
KTEB 060523Z 0606/0706 VRB03KT P6SM BKN100
     FM061200 05007KT P6SM FEW060 BKN080
     FM061800 09008KT P6SM BKN080
     FM062100 13008KT P6SM BKN080
     FM070100 VRB04KT P6SM SCT080 BKN250=

USA.gov is the U.S. government's official web portal to all federal, state and local government web resources and services.